sensor_id;sensor_type;location;lat;lon;timestamp;pressure;altitude;pressure_sealevel;temperature;humidity
83200;BME280;73092;49.132;8.920;2023-12-20T00:02:19;99460.94;;;4.04;100.00
83200;BME280;73092;49.132;8.920;2023-12-20T00:04:45;99461.78;;;4.03;100.00
83200;BME280;73092;49.132;8.920;2023-12-20T00:07:10;99453.97;;;4.00;100.00
83200;BME280;73092;49.132;8.920;2023-12-20T00:09:35;99456.59;;;4.08;100.00
83200;BME280;73092;49.132;8.920;2023-12-20T00:12:00;99458.31;;;4.03;100.00
83200;BME280;73092;49.132;8.920;2023-12-20T00:14:26;99455.72;;;4.00;100.00
83200;BME280;73092;49.132;8.920;2023-12-20T00:16:51;99453.09;;;4.03;100.00
83200;BME280;73092;49.132;8.920;2023-12-20T00:19:16;99451.38;;;4.05;100.00
83200;BME280;73092;49.132;8.920;2023-12-20T00:21:42;99452.25;;;4.02;100.00
83200;BME280;73092;49.132;8.920;2023-12-20T00:24:07;99450.53;;;4.00;100.00
83200;BME280;73092;49.132;8.920;2023-12-20T00:26:33;99448.78;;;3.97;100.00
83200;BME280;73092;49.132;8.920;2023-12-20T00:28:59;99434.03;;;3.98;100.00
83200;BME280;73092;49.132;8.920;2023-12-20T00:31:27;99444.44;;;3.98;100.00
83200;BME280;73092;49.132;8.920;2023-12-20T00:33:53;99446.19;;;4.05;100.00
83200;BME280;73092;49.132;8.920;2023-12-20T00:36:18;99442.72;;;4.00;100.00
83200;BME280;73092;49.132;8.920;2023-12-20T00:38:43;99444.44;;;4.01;100.00
83200;BME280;73092;49.132;8.920;2023-12-20T00:41:08;99457.44;;;4.02;100.00
83200;BME280;73092;49.132;8.920;2023-12-20T00:43:34;99449.63;;;4.04;100.00
83200;BME280;73092;49.132;8.920;2023-12-20T00:45:59;99446.19;;;4.08;100.00
83200;BME280;73092;49.132;8.920;2023-12-20T00:48:25;99439.22;;;4.04;100.00
83200;BME280;73092;49.132;8.920;2023-12-20T00:50:52;99450.53;;;4.01;100.00
83200;BME280;73092;49.132;8.920;2023-12-20T00:53:20;99440.13;;;4.04;100.00
83200;BME280;73092;49.132;8.920;2023-12-20T00:55:46;99432.31;;;4.03;100.00
83200;BME280;73092;49.132;8.920;2023-12-20T00:58:11;99445.31;;;4.03;100.00
83200;BME280;73092;49.132;8.920;2023-12-20T01:00:36;99434.91;;;4.01;100.00
83200;BME280;73092;49.132;8.920;2023-12-20T01:03:02;99435.75;;;4.09;100.00
83200;BME280;73092;49.132;8.920;2023-12-20T01:05:27;99434.91;;;4.06;100.00
83200;BME280;73092;49.132;8.920;2023-12-20T01:07:52;99432.31;;;4.04;100.00
83200;BME280;73092;49.132;8.920;2023-12-20T01:10:18;99439.22;;;4.04;100.00
83200;BME280;73092;49.132;8.920;2023-12-20T01:12:44;99438.38;;;4.02;100.00
83200;BME280;73092;49.132;8.920;2023-12-20T01:15:09;99437.50;;;4.00;100.00
83200;BME280;73092;49.132;8.920;2023-12-20T01:17:35;99439.22;;;4.04;100.00
83200;BME280;73092;49.132;8.920;2023-12-20T01:20:01;99445.31;;;4.04;100.00
83200;BME280;73092;49.132;8.920;2023-12-20T01:22:26;99444.44;;;4.04;100.00
83200;BME280;73092;49.132;8.920;2023-12-20T01:24:51;99440.09;;;4.03;100.00
83200;BME280;73092;49.132;8.920;2023-12-20T01:27:17;99444.44;;;4.01;100.00
83200;BME280;73092;49.132;8.920;2023-12-20T01:29:42;99440.13;;;3.98;100.00
83200;BME280;73092;49.132;8.920;2023-12-20T01:32:08;99434.94;;;3.95;100.00
83200;BME280;73092;49.132;8.920;2023-12-20T01:34:33;99430.59;;;3.96;100.00
83200;BME280;73092;49.132;8.920;2023-12-20T01:36:58;99431.44;;;3.98;100.00
83200;BME280;73092;49.132;8.920;2023-12-20T01:39:25;99434.03;;;3.98;100.00
83200;BME280;73092;49.132;8.920;2023-12-20T01:41:50;99421.91;;;3.97;100.00
83200;BME280;73092;49.132;8.920;2023-12-20T01:44:15;99426.25;;;3.99;100.00
83200;BME280;73092;49.132;8.920;2023-12-20T01:46:41;99433.19;;;4.05;100.00
83200;BME280;73092;49.132;8.920;2023-12-20T01:49:06;99434.03;;;4.04;100.00
83200;BME280;73092;49.132;8.920;2023-12-20T01:51:33;99434.03;;;4.04;100.00
83200;BME280;73092;49.132;8.920;2023-12-20T01:53:59;99436.63;;;4.04;100.00
83200;BME280;73092;49.132;8.920;2023-12-20T01:56:26;99434.03;;;4.04;100.00
83200;BME280;73092;49.132;8.920;2023-12-20T01:58:54;99430.56;;;4.05;100.00
83200;BME280;73092;49.132;8.920;2023-12-20T02:01:24;99434.00;;;4.07;100.00
83200;BME280;73092;49.132;8.920;2023-12-20T02:03:50;99420.16;;;4.11;100.00
83200;BME280;73092;49.132;8.920;2023-12-20T02:06:18;99435.78;;;4.08;100.00
83200;BME280;73092;49.132;8.920;2023-12-20T02:08:45;99432.28;;;4.09;100.00
83200;BME280;73092;49.132;8.920;2023-12-20T02:11:11;99435.78;;;4.05;100.00
83200;BME280;73092;49.132;8.920;2023-12-20T02:13:36;99443.56;;;4.09;100.00
83200;BME280;73092;49.132;8.920;2023-12-20T02:16:01;99440.97;;;4.08;100.00
83200;BME280;73092;49.132;8.920;2023-12-20T02:18:27;99443.56;;;4.11;100.00
83200;BME280;73092;49.132;8.920;2023-12-20T02:20:53;99442.69;;;4.09;100.00
83200;BME280;73092;49.132;8.920;2023-12-20T02:23:18;99438.34;;;4.09;100.00
83200;BME280;73092;49.132;8.920;2023-12-20T02:25:44;99446.16;;;4.11;100.00
83200;BME280;73092;49.132;8.920;2023-12-20T02:28:09;99442.66;;;4.10;100.00
83200;BME280;73092;49.132;8.920;2023-12-20T02:30:34;99444.41;;;4.14;100.00
83200;BME280;73092;49.132;8.920;2023-12-20T02:33:00;99441.81;;;4.14;100.00
83200;BME280;73092;49.132;8.920;2023-12-20T02:35:26;99437.47;;;4.12;100.00
83200;BME280;73092;49.132;8.920;2023-12-20T02:37:51;99430.56;;;4.08;100.00
83200;BME280;73092;49.132;8.920;2023-12-20T02:40:17;99434.00;;;4.07;100.00
83200;BME280;73092;49.132;8.920;2023-12-20T02:42:42;99436.63;;;4.04;100.00
83200;BME280;73092;49.132;8.920;2023-12-20T02:45:08;99435.78;;;4.05;100.00
83200;BME280;73092;49.132;8.920;2023-12-20T02:47:33;99437.47;;;4.12;100.00
83200;BME280;73092;49.132;8.920;2023-12-20T02:49:58;99435.72;;;4.15;100.00
83200;BME280;73092;49.132;8.920;2023-12-20T02:52:24;99434.00;;;4.14;100.00
83200;BME280;73092;49.132;8.920;2023-12-20T02:54:50;99430.56;;;4.11;100.00
83200;BME280;73092;49.132;8.920;2023-12-20T02:57:15;99436.63;;;4.08;100.00
83200;BME280;73092;49.132;8.920;2023-12-20T02:59:40;99440.06;;;4.10;100.00
83200;BME280;73092;49.132;8.920;2023-12-20T03:02:06;99442.69;;;4.09;100.00
83200;BME280;73092;49.132;8.920;2023-12-20T03:04:31;99444.41;;;4.07;100.00
83200;BME280;73092;49.132;8.920;2023-12-20T03:06:56;99446.19;;;4.08;100.00
83200;BME280;73092;49.132;8.920;2023-12-20T03:09:22;99444.41;;;4.10;100.00
83200;BME280;73092;49.132;8.920;2023-12-20T03:11:47;99438.38;;;4.08;100.00
83200;BME280;73092;49.132;8.920;2023-12-20T03:14:12;99444.44;;;4.04;100.00
83200;BME280;73092;49.132;8.920;2023-12-20T03:16:37;99451.38;;;4.06;100.00
83200;BME280;73092;49.132;8.920;2023-12-20T03:19:03;99447.88;;;4.12;100.00
83200;BME280;73092;49.132;8.920;2023-12-20T03:21:28;99441.81;;;4.07;100.00
83200;BME280;73092;49.132;8.920;2023-12-20T03:23:54;99440.97;;;4.08;100.00
83200;BME280;73092;49.132;8.920;2023-12-20T03:26:19;99444.41;;;4.07;100.00
83200;BME280;73092;49.132;8.920;2023-12-20T03:28:44;99441.81;;;4.07;100.00
83200;BME280;73092;49.132;8.920;2023-12-20T03:31:10;99453.09;;;4.09;100.00
83200;BME280;73092;49.132;8.920;2023-12-20T03:33:36;99446.16;;;4.11;100.00
83200;BME280;73092;49.132;8.920;2023-12-20T03:36:01;99451.38;;;4.08;100.00
83200;BME280;73092;49.132;8.920;2023-12-20T03:38:26;99446.16;;;4.06;100.00
83200;BME280;73092;49.132;8.920;2023-12-20T03:40:52;99460.03;;;4.07;100.00
83200;BME280;73092;49.132;8.920;2023-12-20T03:43:17;99451.38;;;4.05;100.00
83200;BME280;73092;49.132;8.920;2023-12-20T03:45:43;99454.84;;;4.04;100.00
83200;BME280;73092;49.132;8.920;2023-12-20T03:48:08;99447.91;;;4.06;100.00
83200;BME280;73092;49.132;8.920;2023-12-20T03:50:34;99450.53;;;4.01;100.00
83200;BME280;73092;49.132;8.920;2023-12-20T03:53:00;99449.63;;;4.01;100.00
83200;BME280;73092;49.132;8.920;2023-12-20T03:55:25;99444.44;;;3.98;100.00
83200;BME280;73092;49.132;8.920;2023-12-20T03:57:51;99447.06;;;3.99;100.00
83200;BME280;73092;49.132;8.920;2023-12-20T04:00:16;99444.44;;;3.98;100.00
83200;BME280;73092;49.132;8.920;2023-12-20T04:02:42;99439.25;;;3.98;100.00
83200;BME280;73092;49.132;8.920;2023-12-20T04:05:08;99448.75;;;4.06;100.00
83200;BME280;73092;49.132;8.920;2023-12-20T04:07:37;99436.63;;;4.04;100.00
83200;BME280;73092;49.132;8.920;2023-12-20T04:10:02;99459.19;;;4.02;100.00
83200;BME280;73092;49.132;8.920;2023-12-20T04:12:29;99460.91;;;4.00;100.00
83200;BME280;73092;49.132;8.920;2023-12-20T04:14:54;99459.19;;;4.00;100.00
83200;BME280;73092;49.132;8.920;2023-12-20T04:17:20;99472.19;;;4.05;100.00
83200;BME280;73092;49.132;8.920;2023-12-20T04:19:47;99472.19;;;4.05;100.00
83200;BME280;73092;49.132;8.920;2023-12-20T04:22:13;99469.56;;;4.03;100.00
83200;BME280;73092;49.132;8.920;2023-12-20T04:24:38;99473.06;;;4.02;100.00
83200;BME280;73092;49.132;8.920;2023-12-20T04:27:04;99475.63;;;4.07;100.00
83200;BME280;73092;49.132;8.920;2023-12-20T04:29:29;99480.84;;;4.04;100.00
83200;BME280;73092;49.132;8.920;2023-12-20T04:31:57;99479.13;;;4.03;100.00
83200;BME280;73092;49.132;8.920;2023-12-20T04:34:26;99483.44;;;4.07;100.00
83200;BME280;73092;49.132;8.920;2023-12-20T04:36:52;99482.59;;;4.05;100.00
83200;BME280;73092;49.132;8.920;2023-12-20T04:39:17;99483.44;;;4.04;100.00
83200;BME280;73092;49.132;8.920;2023-12-20T04:41:43;99481.72;;;4.03;100.00
83200;BME280;73092;49.132;8.920;2023-12-20T04:44:08;99479.13;;;4.09;100.00
83200;BME280;73092;49.132;8.920;2023-12-20T04:46:33;99482.59;;;4.14;100.00
83200;BME280;73092;49.132;8.920;2023-12-20T04:48:59;99488.66;;;4.11;100.00
83200;BME280;73092;49.132;8.920;2023-12-20T04:51:24;99494.72;;;4.09;100.00
83200;BME280;73092;49.132;8.920;2023-12-20T04:53:49;99498.19;;;4.08;100.00
83200;BME280;73092;49.132;8.920;2023-12-20T04:56:15;99505.13;;;4.06;100.00
83200;BME280;73092;49.132;8.920;2023-12-20T04:58:41;99496.44;;;4.10;100.00
83200;BME280;73092;49.132;8.920;2023-12-20T05:01:08;99493.00;;;4.08;100.00
83200;BME280;73092;49.132;8.920;2023-12-20T05:03:34;99496.44;;;4.04;100.00
83200;BME280;73092;49.132;8.920;2023-12-20T05:06:00;99506.84;;;4.04;100.00
83200;BME280;73092;49.132;8.920;2023-12-20T05:08:26;99507.72;;;4.06;100.00
83200;BME280;73092;49.132;8.920;2023-12-20T05:10:53;99506.84;;;4.07;100.00
83200;BME280;73092;49.132;8.920;2023-12-20T05:13:19;99506.84;;;4.07;100.00
83200;BME280;73092;49.132;8.920;2023-12-20T05:15:44;99499.91;;;4.12;100.00
83200;BME280;73092;49.132;8.920;2023-12-20T05:18:09;99513.81;;;4.11;100.00
83200;BME280;73092;49.132;8.920;2023-12-20T05:20:35;99515.53;;;4.12;100.00
83200;BME280;73092;49.132;8.920;2023-12-20T05:23:00;99513.81;;;4.11;100.00
83200;BME280;73092;49.132;8.920;2023-12-20T05:25:25;99519.00;;;4.11;100.00
83200;BME280;73092;49.132;8.920;2023-12-20T05:27:51;99517.25;;;4.16;100.00
83200;BME280;73092;49.132;8.920;2023-12-20T05:30:19;99515.53;;;4.12;100.00
83200;BME280;73092;49.132;8.920;2023-12-20T05:32:44;99523.31;;;4.10;100.00
83200;BME280;73092;49.132;8.920;2023-12-20T05:35:13;99526.78;;;4.12;100.00
83200;BME280;73092;49.132;8.920;2023-12-20T05:37:38;99541.53;;;4.12;100.00
83200;BME280;73092;49.132;8.920;2023-12-20T05:40:04;99538.06;;;4.10;100.00
83200;BME280;73092;49.132;8.920;2023-12-20T05:42:29;99556.28;;;4.14;100.00
83200;BME280;73092;49.132;8.920;2023-12-20T05:44:55;99549.31;;;4.23;100.00
83200;BME280;73092;49.132;8.920;2023-12-20T05:47:20;99546.75;;;4.21;100.00
83200;BME280;73092;49.132;8.920;2023-12-20T05:49:45;99546.75;;;4.18;100.00
83200;BME280;73092;49.132;8.920;2023-12-20T05:52:14;99549.34;;;4.21;100.00
83200;BME280;73092;49.132;8.920;2023-12-20T05:54:40;99554.53;;;4.20;100.00
83200;BME280;73092;49.132;8.920;2023-12-20T05:57:05;99548.47;;;4.13;100.00
83200;BME280;73092;49.132;8.920;2023-12-20T05:59:30;99548.47;;;4.13;100.00
83200;BME280;73092;49.132;8.920;2023-12-20T06:01:58;99558.03;;;4.14;100.00
83200;BME280;73092;49.132;8.920;2023-12-20T06:04:24;99559.75;;;4.16;100.00
83200;BME280;73092;49.132;8.920;2023-12-20T06:06:50;99562.34;;;4.18;100.00
83200;BME280;73092;49.132;8.920;2023-12-20T06:09:15;99564.06;;;4.16;100.00
83200;BME280;73092;49.132;8.920;2023-12-20T06:11:40;99569.28;;;4.19;100.00
83200;BME280;73092;49.132;8.920;2023-12-20T06:14:06;99575.34;;;4.16;100.00
83200;BME280;73092;49.132;8.920;2023-12-20T06:16:31;99570.16;;;4.12;100.00
83200;BME280;73092;49.132;8.920;2023-12-20T06:18:56;99571.03;;;4.17;100.00
83200;BME280;73092;49.132;8.920;2023-12-20T06:21:22;99577.97;;;4.15;100.00
83200;BME280;73092;49.132;8.920;2023-12-20T06:23:47;99566.69;;;4.14;100.00
83200;BME280;73092;49.132;8.920;2023-12-20T06:26:13;99575.34;;;4.16;100.00
83200;BME280;73092;49.132;8.920;2023-12-20T06:28:38;99581.44;;;4.17;100.00
83200;BME280;73092;49.132;8.920;2023-12-20T06:31:03;99586.66;;;4.17;100.00
83200;BME280;73092;49.132;8.920;2023-12-20T06:33:29;99585.75;;;4.16;100.00
83200;BME280;73092;49.132;8.920;2023-12-20T06:35:56;99589.25;;;4.14;100.00
83200;BME280;73092;49.132;8.920;2023-12-20T06:38:21;99588.38;;;4.18;100.00
83200;BME280;73092;49.132;8.920;2023-12-20T06:40:46;99600.50;;;4.13;100.00
83200;BME280;73092;49.132;8.920;2023-12-20T06:43:12;99595.31;;;4.16;100.00
83200;BME280;73092;49.132;8.920;2023-12-20T06:45:38;99599.63;;;4.15;100.00
83200;BME280;73092;49.132;8.920;2023-12-20T06:48:04;99606.56;;;4.16;100.00
83200;BME280;73092;49.132;8.920;2023-12-20T06:50:30;99602.25;;;4.23;100.00
83200;BME280;73092;49.132;8.920;2023-12-20T06:52:55;99602.25;;;4.26;100.00
83200;BME280;73092;49.132;8.920;2023-12-20T06:55:20;99614.38;;;4.24;100.00
83200;BME280;73092;49.132;8.920;2023-12-20T06:57:45;99612.66;;;4.23;100.00
83200;BME280;73092;49.132;8.920;2023-12-20T07:00:11;99620.47;;;4.23;100.00
83200;BME280;73092;49.132;8.920;2023-12-20T07:02:37;99630.88;;;4.25;100.00
83200;BME280;73092;49.132;8.920;2023-12-20T07:05:02;99640.41;;;4.21;100.00
83200;BME280;73092;49.132;8.920;2023-12-20T07:07:28;99640.41;;;4.18;100.00
83200;BME280;73092;49.132;8.920;2023-12-20T07:09:53;99641.28;;;4.18;100.00
83200;BME280;73092;49.132;8.920;2023-12-20T07:12:18;99640.41;;;4.18;100.00
83200;BME280;73092;49.132;8.920;2023-12-20T07:14:45;99644.75;;;4.17;100.00
83200;BME280;73092;49.132;8.920;2023-12-20T07:17:10;99649.94;;;4.16;100.00
83200;BME280;73092;49.132;8.920;2023-12-20T07:19:38;99650.81;;;4.21;100.00
83200;BME280;73092;49.132;8.920;2023-12-20T07:22:05;99638.69;;;4.23;100.00
83200;BME280;73092;49.132;8.920;2023-12-20T07:24:30;99643.00;;;4.21;100.00
83200;BME280;73092;49.132;8.920;2023-12-20T07:26:56;99640.41;;;4.15;100.00
83200;BME280;73092;49.132;8.920;2023-12-20T07:29:21;99650.81;;;4.12;100.00
83200;BME280;73092;49.132;8.920;2023-12-20T07:31:46;99650.81;;;4.09;100.00
83200;BME280;73092;49.132;8.920;2023-12-20T07:34:12;99650.81;;;4.09;100.00
83200;BME280;73092;49.132;8.920;2023-12-20T07:36:37;99654.28;;;4.11;100.00
83200;BME280;73092;49.132;8.920;2023-12-20T07:39:02;99649.97;;;4.11;100.00
83200;BME280;73092;49.132;8.920;2023-12-20T07:41:28;99652.53;;;4.13;100.00
83200;BME280;73092;49.132;8.920;2023-12-20T07:43:53;99645.63;;;4.15;100.00
83200;BME280;73092;49.132;8.920;2023-12-20T07:46:20;99658.59;;;4.23;100.00
83200;BME280;73092;49.132;8.920;2023-12-20T07:48:48;99668.16;;;4.19;100.00
83200;BME280;73092;49.132;8.920;2023-12-20T07:51:14;99664.72;;;4.17;100.00
83200;BME280;73092;49.132;8.920;2023-12-20T07:53:39;99664.72;;;4.23;100.00
83200;BME280;73092;49.132;8.920;2023-12-20T07:56:17;99672.50;;;4.25;100.00
83200;BME280;73092;49.132;8.920;2023-12-20T07:58:43;99673.38;;;4.25;100.00
83200;BME280;73092;49.132;8.920;2023-12-20T08:01:11;99668.19;;;4.21;100.00
83200;BME280;73092;49.132;8.920;2023-12-20T08:03:37;99673.38;;;4.31;100.00
83200;BME280;73092;49.132;8.920;2023-12-20T08:06:02;99675.09;;;4.29;100.00
83200;BME280;73092;49.132;8.920;2023-12-20T08:08:28;99674.22;;;4.29;100.00
83200;BME280;73092;49.132;8.920;2023-12-20T08:10:53;99678.56;;;4.25;100.00
83200;BME280;73092;49.132;8.920;2023-12-20T08:13:19;99685.53;;;4.23;100.00
83200;BME280;73092;49.132;8.920;2023-12-20T08:15:44;99692.47;;;4.21;100.00
83200;BME280;73092;49.132;8.920;2023-12-20T08:18:09;99691.56;;;4.10;100.00
83200;BME280;73092;49.132;8.920;2023-12-20T08:20:34;99681.13;;;3.94;100.00
83200;BME280;73092;49.132;8.920;2023-12-20T08:23:00;99677.63;;;3.79;100.00
83200;BME280;73092;49.132;8.920;2023-12-20T08:25:25;99681.94;;;3.69;100.00
83200;BME280;73092;49.132;8.920;2023-12-20T08:27:51;99681.09;;;3.61;100.00
83200;BME280;73092;49.132;8.920;2023-12-20T08:30:16;99694.09;;;3.61;100.00
83200;BME280;73092;49.132;8.920;2023-12-20T08:32:48;99693.19;;;3.60;100.00
83200;BME280;73092;49.132;8.920;2023-12-20T08:35:13;99695.78;;;3.59;100.00
83200;BME280;73092;49.132;8.920;2023-12-20T08:37:38;99701.00;;;3.62;100.00
83200;BME280;73092;49.132;8.920;2023-12-20T08:40:04;99709.69;;;3.64;100.00
83200;BME280;73092;49.132;8.920;2023-12-20T08:42:30;99701.88;;;3.62;100.00
83200;BME280;73092;49.132;8.920;2023-12-20T08:44:57;99704.47;;;3.65;100.00
83200;BME280;73092;49.132;8.920;2023-12-20T08:47:26;99702.75;;;3.69;100.00
83200;BME280;73092;49.132;8.920;2023-12-20T08:49:52;99690.63;;;3.74;100.00
83200;BME280;73092;49.132;8.920;2023-12-20T08:52:24;99707.13;;;3.76;100.00
83200;BME280;73092;49.132;8.920;2023-12-20T08:54:50;99702.81;;;3.86;100.00
83200;BME280;73092;49.132;8.920;2023-12-20T08:57:22;99695.91;;;3.96;100.00
83200;BME280;73092;49.132;8.920;2023-12-20T08:59:51;99696.75;;;3.96;100.00
83200;BME280;73092;49.132;8.920;2023-12-20T09:02:16;99689.84;;;3.95;100.00
83200;BME280;73092;49.132;8.920;2023-12-20T09:04:42;99696.75;;;4.01;100.00
83200;BME280;73092;49.132;8.920;2023-12-20T09:07:26;99696.75;;;4.04;100.00
83200;BME280;73092;49.132;8.920;2023-12-20T09:09:52;99707.19;;;4.08;100.00
83200;BME280;73092;49.132;8.920;2023-12-20T09:12:21;99708.03;;;4.10;100.00
83200;BME280;73092;49.132;8.920;2023-12-20T09:14:50;99708.06;;;4.18;100.00
83200;BME280;73092;49.132;8.920;2023-12-20T09:17:16;99701.16;;;4.26;100.00
83200;BME280;73092;49.132;8.920;2023-12-20T09:19:43;99693.31;;;4.28;100.00
83200;BME280;73092;49.132;8.920;2023-12-20T09:22:11;99701.13;;;4.32;100.00
83200;BME280;73092;49.132;8.920;2023-12-20T09:24:37;99702.88;;;4.49;100.00
83200;BME280;73092;49.132;8.920;2023-12-20T09:27:04;99703.72;;;4.66;100.00
83200;BME280;73092;49.132;8.920;2023-12-20T09:29:30;99710.66;;;4.76;100.00
83200;BME280;73092;49.132;8.920;2023-12-20T09:31:55;99711.53;;;4.81;100.00
83200;BME280;73092;49.132;8.920;2023-12-20T09:34:22;99709.78;;;4.86;100.00
83200;BME280;73092;49.132;8.920;2023-12-20T09:36:48;99711.50;;;4.87;100.00
83200;BME280;73092;49.132;8.920;2023-12-20T09:39:14;99706.28;;;4.91;100.00
83200;BME280;73092;49.132;8.920;2023-12-20T09:41:43;99697.59;;;4.88;100.00
83200;BME280;73092;49.132;8.920;2023-12-20T09:44:14;99706.31;;;4.87;99.79
83200;BME280;73092;49.132;8.920;2023-12-20T09:46:43;99713.22;;;4.88;100.00
83200;BME280;73092;49.132;8.920;2023-12-20T09:49:08;99721.94;;;4.91;99.90
83200;BME280;73092;49.132;8.920;2023-12-20T09:51:34;99721.94;;;4.87;99.71
83200;BME280;73092;49.132;8.920;2023-12-20T09:54:05;99721.94;;;4.89;99.02
83200;BME280;73092;49.132;8.920;2023-12-20T09:56:30;99719.34;;;4.92;98.04
83200;BME280;73092;49.132;8.920;2023-12-20T09:58:56;99719.31;;;4.91;97.96
83200;BME280;73092;49.132;8.920;2023-12-20T10:01:22;99716.75;;;4.83;97.57
83200;BME280;73092;49.132;8.920;2023-12-20T10:03:50;99715.88;;;4.75;97.65
83200;BME280;73092;49.132;8.920;2023-12-20T10:06:16;99716.75;;;4.66;97.94
83200;BME280;73092;49.132;8.920;2023-12-20T10:08:42;99715.88;;;4.62;97.79
83200;BME280;73092;49.132;8.920;2023-12-20T10:11:07;99718.50;;;4.67;97.87
83200;BME280;73092;49.132;8.920;2023-12-20T10:13:33;99715.00;;;4.65;98.50
83200;BME280;73092;49.132;8.920;2023-12-20T10:15:59;99721.94;;;4.60;98.38
83200;BME280;73092;49.132;8.920;2023-12-20T10:18:24;99708.09;;;4.55;98.47
83200;BME280;73092;49.132;8.920;2023-12-20T10:20:52;99700.28;;;4.49;98.53
83200;BME280;73092;49.132;8.920;2023-12-20T10:23:18;99704.59;;;4.47;98.11
83200;BME280;73092;49.132;8.920;2023-12-20T10:25:55;99699.41;;;4.44;97.18
83200;BME280;73092;49.132;8.920;2023-12-20T10:28:20;99702.00;;;4.53;97.06
83200;BME280;73092;49.132;8.920;2023-12-20T10:30:48;99706.31;;;4.66;97.06
83200;BME280;73092;49.132;8.920;2023-12-20T10:33:23;99695.91;;;4.75;96.50
83200;BME280;73092;49.132;8.920;2023-12-20T10:35:49;99705.44;;;4.81;95.73
83200;BME280;73092;49.132;8.920;2023-12-20T10:38:15;99697.63;;;4.82;96.27
83200;BME280;73092;49.132;8.920;2023-12-20T10:40:40;99690.69;;;4.81;95.26
83200;BME280;73092;49.132;8.920;2023-12-20T10:43:07;99692.41;;;4.82;95.24
83200;BME280;73092;49.132;8.920;2023-12-20T10:45:33;99691.53;;;4.85;95.26
83200;BME280;73092;49.132;8.920;2023-12-20T10:47:59;99692.38;;;4.92;94.84
83200;BME280;73092;49.132;8.920;2023-12-20T10:50:27;99689.75;;;5.04;94.60
83200;BME280;73092;49.132;8.920;2023-12-20T10:52:54;99701.03;;;5.12;94.50
83200;BME280;73092;49.132;8.920;2023-12-20T10:55:21;99699.31;;;5.17;93.28
83200;BME280;73092;49.132;8.920;2023-12-20T10:57:52;99695.81;;;5.15;93.17
83200;BME280;73092;49.132;8.920;2023-12-20T11:00:21;99690.63;;;5.12;93.26
83200;BME280;73092;49.132;8.920;2023-12-20T11:02:49;99683.69;;;5.08;92.80
83200;BME280;73092;49.132;8.920;2023-12-20T11:11:11;99673.25;;;5.14;92.43
83200;BME280;73092;49.132;8.920;2023-12-20T11:13:43;99662.81;;;5.20;93.14
83200;BME280;73092;49.132;8.920;2023-12-20T11:16:13;99657.50;;;5.36;93.04
83200;BME280;73092;49.132;8.920;2023-12-20T11:18:40;99662.69;;;5.39;90.87
83200;BME280;73092;49.132;8.920;2023-12-20T11:21:05;99654.88;;;5.42;90.27
83200;BME280;73092;49.132;8.920;2023-12-20T11:23:34;99654.88;;;5.43;88.90
83200;BME280;73092;49.132;8.920;2023-12-20T11:26:01;99652.25;;;5.42;88.83
83200;BME280;73092;49.132;8.920;2023-12-20T11:28:26;99659.22;;;5.46;88.58
83200;BME280;73092;49.132;8.920;2023-12-20T11:30:54;99648.78;;;5.49;89.19
83200;BME280;73092;49.132;8.920;2023-12-20T11:33:23;99651.38;;;5.49;88.98
83200;BME280;73092;49.132;8.920;2023-12-20T11:35:48;99652.25;;;5.42;89.08
83200;BME280;73092;49.132;8.920;2023-12-20T11:38:14;99656.63;;;5.38;89.32
83200;BME280;73092;49.132;8.920;2023-12-20T11:40:42;99652.28;;;5.36;90.35
83200;BME280;73092;49.132;8.920;2023-12-20T11:43:07;99648.78;;;5.43;90.72
83200;BME280;73092;49.132;8.920;2023-12-20T11:45:34;99648.72;;;5.61;90.55
83200;BME280;73092;49.132;8.920;2023-12-20T11:48:01;99631.19;;;5.78;90.04
83200;BME280;73092;49.132;8.920;2023-12-20T11:50:28;99646.75;;;5.97;89.52
83200;BME280;73092;49.132;8.920;2023-12-20T11:52:55;99646.75;;;5.95;88.40
83200;BME280;73092;49.132;8.920;2023-12-20T11:55:21;99631.13;;;5.88;87.64
83200;BME280;73092;49.132;8.920;2023-12-20T11:57:46;99638.16;;;5.76;87.70
83200;BME280;73092;49.132;8.920;2023-12-20T12:00:13;99643.44;;;5.70;88.78
83200;BME280;73092;49.132;8.920;2023-12-20T12:02:39;99649.50;;;5.69;88.99
83200;BME280;73092;49.132;8.920;2023-12-20T12:05:04;99652.13;;;5.66;88.82
83200;BME280;73092;49.132;8.920;2023-12-20T12:07:34;99650.41;;;5.64;89.72
83200;BME280;73092;49.132;8.920;2023-12-20T12:10:00;99644.38;;;5.55;90.34
83200;BME280;73092;49.132;8.920;2023-12-20T12:12:26;99650.47;;;5.53;91.23
83200;BME280;73092;49.132;8.920;2023-12-20T12:14:52;99648.78;;;5.49;92.22
83200;BME280;73092;49.132;8.920;2023-12-20T12:17:18;99643.59;;;5.43;92.08
83200;BME280;73092;49.132;8.920;2023-12-20T12:19:44;99640.09;;;5.44;92.46
83200;BME280;73092;49.132;8.920;2023-12-20T12:22:11;99629.63;;;5.50;92.70
83200;BME280;73092;49.132;8.920;2023-12-20T12:24:45;99629.53;;;5.65;93.56
83200;BME280;73092;49.132;8.920;2023-12-20T12:27:11;99632.16;;;5.62;92.76
83200;BME280;73092;49.132;8.920;2023-12-20T12:29:37;99634.78;;;5.62;92.05
83200;BME280;73092;49.132;8.920;2023-12-20T12:32:07;99632.13;;;5.67;92.80
83200;BME280;73092;49.132;8.920;2023-12-20T12:34:33;99626.94;;;5.64;92.78
83200;BME280;73092;49.132;8.920;2023-12-20T12:37:03;99626.09;;;5.57;92.97
83200;BME280;73092;49.132;8.920;2023-12-20T12:39:29;99636.53;;;5.57;92.56
83200;BME280;73092;49.132;8.920;2023-12-20T12:41:58;99629.56;;;5.62;92.79
83200;BME280;73092;49.132;8.920;2023-12-20T12:44:24;99634.72;;;5.71;93.08
83200;BME280;73092;49.132;8.920;2023-12-20T12:46:50;99624.16;;;5.90;93.09
83200;BME280;73092;49.132;8.920;2023-12-20T12:49:16;99631.03;;;6.05;91.81
83200;BME280;73092;49.132;8.920;2023-12-20T12:51:42;99624.06;;;6.08;90.21
83200;BME280;73092;49.132;8.920;2023-12-20T12:54:09;99620.56;;;6.09;90.00
83200;BME280;73092;49.132;8.920;2023-12-20T12:56:35;99639.81;;;5.99;88.84
83200;BME280;73092;49.132;8.920;2023-12-20T12:59:01;99632.00;;;5.96;90.19
83200;BME280;73092;49.132;8.920;2023-12-20T13:01:26;99628.59;;;5.78;89.53
83200;BME280;73092;49.132;8.920;2023-12-20T13:03:51;99626.06;;;5.66;89.96